Save, Benin
Current Conditions -  °F | °C
As of 3:00 PM on Monday 24 Nov 2014 (Local Time) from DBBB Reporting Station
Broken Clouds Broken Clouds  
Wind Chill: 86°   Ceiling: 10000
Heat Index: 102°   Visibility: 6mi
Dew Point: 81°   Wind: 9mph
Humidity: 84%   Direction: 210°SSW
Pressure: 29.8"   Gusts: NA
Location:  8.03°N, 2.49°E
Report Text: DBBB 241400Z 21008KT 9999 SCT012 FEW030CB BKN100 30/27 Q1009 NOSIG
Loading
Personal Weather Stations






























Interactive Weather Map New forecast layout! Learn more

10-Day Weather Forecast

Advertisements
Track Severe Weather on mobile